Forside
METAR-TAF:

METAR-TAF

Lufthavne :

Yap, Mikronesien

Breddekreds: 09-29N, længdekreds: 138-05E, højde: 28 m

Aktuelle vejr

Denne rapport blev lavet for 26 minutter siden, kl. 16:53 UTC
Vind stille
Temperatur 26°C
Fugtighed 89%
Tryk 1010 hPa
Sigt: 19.3 km
Spredte skyer i en højde af 1600 ft, Optårnet Cumulus.
Spredte skyer i en højde af 13000 ft
Overskyet i en højde af 30000 ft

METAR: PTYA 251653Z 00000KT 12SM SCT016TCU SCT130 OVC300 26/24 A2982 RMK SHRAB08E30 TCU N-E SLP098 T02570243

Tid: 03:19 (17:19 UTC)

Vejrudsigter

Denne rapport blev lavet for 5 timer og 45 minutter siden, kl. 11:34 UTC
Foreløbig gælder fra 25 på 12 UTC til 26 på 12 UTC
Vind 5 kt fra varierende retninger
Sigt: 10 km
Nogle få skyer i en højde af 1600 ft
Spredte skyer i en højde af 13000 ft
byger i nærheden

TAF: PTYA 251134Z 2512/2612 VRB05KT P6SM VCSH FEW016 SCT130

Vejrobservationer og prognoser fra mere end 4000 lufthavne (METAR og TAF).

De gule og røde prikker repræsenterer de meteorologiske stationer.

Flyt musen over at se navnet på stationen.

Så klik over at se vejr observationer og prognoser.

At skifte det kort: Klik på de grønne knapper med et sort kors for at zoome ind; på den grønne knap med en bindestreg for at zoome ud; eller på de grønne pile for tilstødende kort.


METAR-TAF: